createdAt,value
2018-04-27T00:00:04.778Z,7.30
2018-04-27T00:01:04.683Z,7.30
2018-04-27T00:02:05.272Z,7.20
2018-04-27T00:03:05.028Z,7.20
2018-04-27T00:04:05.536Z,7.20
2018-04-27T00:05:05.263Z,7.20
2018-04-27T00:06:06.061Z,7.20
2018-04-27T00:07:04.672Z,7.10
2018-04-27T00:08:05.375Z,7.10
2018-04-27T00:09:04.989Z,7.10
2018-04-27T00:10:05.123Z,7.10
2018-04-27T00:11:05.425Z,7.10
2018-04-27T00:12:05.281Z,7.00
2018-04-27T00:13:04.856Z,7.00
2018-04-27T00:14:05.485Z,7.00
2018-04-27T00:15:05.139Z,7.00
2018-04-27T00:16:04.682Z,6.90
2018-04-27T00:17:05.151Z,6.90
2018-04-27T00:18:04.898Z,6.90
2018-04-27T00:19:05.424Z,6.80
2018-04-27T00:20:05.014Z,6.80
2018-04-27T00:21:05.615Z,6.80
2018-04-27T00:22:05.487Z,6.80
2018-04-27T00:23:05.518Z,6.80
2018-04-27T00:24:04.639Z,6.80
2018-04-27T00:25:05.289Z,6.80
2018-04-27T00:26:05.234Z,6.70
2018-04-27T00:27:04.902Z,6.70
2018-04-27T00:28:05.354Z,6.70
2018-04-27T00:29:05.104Z,6.70
2018-04-27T00:30:04.940Z,6.70
2018-04-27T00:31:05.628Z,6.70
2018-04-27T00:32:04.762Z,6.70
2018-04-27T00:33:05.741Z,6.60
2018-04-27T00:34:05.323Z,6.60
2018-04-27T00:35:05.335Z,6.60
2018-04-27T00:36:04.756Z,6.60
2018-04-27T00:37:04.732Z,6.50
2018-04-27T00:38:04.606Z,6.50
2018-04-27T00:39:05.540Z,6.50
2018-04-27T00:40:05.561Z,6.40
2018-04-27T00:41:05.539Z,6.40
2018-04-27T00:42:05.392Z,6.40
2018-04-27T00:43:05.560Z,6.40
2018-04-27T00:44:05.158Z,6.40
2018-04-27T00:45:04.953Z,6.40
2018-04-27T00:46:05.405Z,6.40
2018-04-27T00:47:04.815Z,6.40
2018-04-27T00:48:05.498Z,6.30
2018-04-27T00:49:05.281Z,6.30
2018-04-27T00:50:05.309Z,6.30
2018-04-27T00:51:06.119Z,6.30
2018-04-27T00:52:05.179Z,6.30
2018-04-27T00:53:05.302Z,6.30
2018-04-27T00:54:04.836Z,6.20
2018-04-27T00:55:05.623Z,6.20
2018-04-27T00:56:04.916Z,6.20
2018-04-27T00:57:04.974Z,6.20
2018-04-27T00:58:04.647Z,6.20
2018-04-27T00:59:05.228Z,6.20
2018-04-27T01:00:04.834Z,6.20
2018-04-27T01:01:05.361Z,6.20
2018-04-27T01:02:04.841Z,6.20
2018-04-27T01:03:05.508Z,6.20
2018-04-27T01:04:05.254Z,6.20
2018-04-27T01:05:05.356Z,6.20
2018-04-27T01:06:05.264Z,6.20
2018-04-27T01:07:04.760Z,6.20
2018-04-27T01:08:05.592Z,6.20
2018-04-27T01:09:05.015Z,6.20
2018-04-27T01:10:05.243Z,6.20
2018-04-27T01:11:04.914Z,6.20
2018-04-27T01:12:05.656Z,6.20
2018-04-27T01:13:05.600Z,6.10
2018-04-27T01:14:05.389Z,6.10
2018-04-27T01:15:05.248Z,6.10
2018-04-27T01:16:05.456Z,6.10
2018-04-27T01:17:04.733Z,6.10
2018-04-27T01:18:04.840Z,6.10
2018-04-27T01:19:05.518Z,6.10
2018-04-27T01:20:06.636Z,6.10
2018-04-27T01:21:04.645Z,6.10
2018-04-27T01:22:05.147Z,6.10
2018-04-27T01:23:04.993Z,6.00
2018-04-27T01:24:04.781Z,6.00
2018-04-27T01:25:05.224Z,6.00
2018-04-27T01:26:05.401Z,6.00
2018-04-27T01:27:04.740Z,5.90
2018-04-27T01:28:04.792Z,5.90
2018-04-27T01:29:05.208Z,5.90
2018-04-27T01:30:04.915Z,5.90
2018-04-27T01:31:05.015Z,5.90
2018-04-27T01:32:04.727Z,5.90
2018-04-27T01:33:04.989Z,5.80
2018-04-27T01:34:04.710Z,5.80
2018-04-27T01:35:05.396Z,5.80
2018-04-27T01:36:05.098Z,5.80
2018-04-27T01:37:04.726Z,5.80
2018-04-27T01:38:04.806Z,5.80
2018-04-27T01:39:05.229Z,5.80
2018-04-27T01:40:05.100Z,5.80
2018-04-27T01:41:05.189Z,5.70
2018-04-27T01:42:04.956Z,5.70
2018-04-27T01:43:05.000Z,5.70
2018-04-27T01:44:04.931Z,5.70
2018-04-27T01:45:04.828Z,5.70
2018-04-27T01:46:05.499Z,5.70
2018-04-27T01:47:05.247Z,5.70
2018-04-27T01:48:04.669Z,5.70
2018-04-27T01:49:05.197Z,5.70
2018-04-27T01:50:04.641Z,5.70
2018-04-27T01:51:05.522Z,5.70
2018-04-27T01:52:05.349Z,5.70
2018-04-27T01:53:05.442Z,5.70
2018-04-27T01:54:04.802Z,5.60
2018-04-27T01:55:04.702Z,5.60
2018-04-27T01:56:05.373Z,5.60
2018-04-27T01:57:05.396Z,5.60
2018-04-27T01:58:04.843Z,5.60
2018-04-27T01:59:05.125Z,5.60
2018-04-27T02:00:05.096Z,5.60
2018-04-27T02:01:04.704Z,5.50
2018-04-27T02:02:05.349Z,5.50
2018-04-27T02:03:04.847Z,5.50
2018-04-27T02:04:04.747Z,5.50
2018-04-27T02:05:05.081Z,5.50
2018-04-27T02:06:04.965Z,5.50
2018-04-27T02:07:05.600Z,5.40
2018-04-27T02:08:05.563Z,5.40
2018-04-27T02:09:04.955Z,5.40
2018-04-27T02:10:05.504Z,5.40
2018-04-27T02:11:05.071Z,5.40
2018-04-27T02:12:05.102Z,5.40
2018-04-27T02:13:05.403Z,5.40
2018-04-27T02:14:04.662Z,5.30
2018-04-27T02:15:05.028Z,5.30
2018-04-27T02:16:04.718Z,5.30
2018-04-27T02:17:05.071Z,5.30
2018-04-27T02:18:05.525Z,5.30
2018-04-27T02:19:04.831Z,5.30
2018-04-27T02:20:05.508Z,5.30
2018-04-27T02:21:05.170Z,5.30
2018-04-27T02:22:05.593Z,5.30
2018-04-27T02:23:05.107Z,5.30
2018-04-27T02:24:05.329Z,5.30
2018-04-27T02:25:05.153Z,5.20
2018-04-27T02:26:05.443Z,5.20
2018-04-27T02:27:05.494Z,5.20
2018-04-27T02:28:05.634Z,5.20
2018-04-27T02:29:05.435Z,5.20
2018-04-27T02:30:05.195Z,5.10
2018-04-27T02:31:04.889Z,5.10
2018-04-27T02:32:04.802Z,5.10
2018-04-27T02:33:04.625Z,5.10
2018-04-27T02:34:05.265Z,5.10
2018-04-27T02:35:05.065Z,5.10
2018-04-27T02:36:04.988Z,5.10
2018-04-27T02:37:05.457Z,5.10
2018-04-27T02:38:04.883Z,5.10
2018-04-27T02:39:05.344Z,5.00
2018-04-27T02:40:05.689Z,5.00
2018-04-27T02:41:05.416Z,5.00
2018-04-27T02:42:05.292Z,5.00
2018-04-27T02:43:05.136Z,5.00
2018-04-27T02:44:04.731Z,5.00
2018-04-27T02:45:05.026Z,5.00
2018-04-27T02:46:05.559Z,5.00
2018-04-27T02:47:05.267Z,5.00
2018-04-27T02:48:05.373Z,5.00
2018-04-27T02:49:05.171Z,5.00
2018-04-27T02:50:05.118Z,5.00
2018-04-27T02:51:05.062Z,4.90
2018-04-27T02:52:05.123Z,5.00
2018-04-27T02:53:04.841Z,4.90
2018-04-27T02:54:05.429Z,4.90
2018-04-27T02:55:05.244Z,4.90
2018-04-27T02:56:04.922Z,4.90
2018-04-27T02:57:04.777Z,4.90
2018-04-27T02:58:05.531Z,4.90
2018-04-27T02:59:05.253Z,4.90
2018-04-27T03:00:05.081Z,4.90
2018-04-27T03:01:04.785Z,4.90
2018-04-27T03:02:05.072Z,4.90
2018-04-27T03:03:04.729Z,5.00
2018-04-27T03:04:05.218Z,4.90
2018-04-27T03:05:04.831Z,5.00
2018-04-27T03:06:05.231Z,5.00
2018-04-27T03:07:05.235Z,4.90
2018-04-27T03:08:05.019Z,4.90
2018-04-27T03:09:04.836Z,4.90
2018-04-27T03:10:05.212Z,4.90
2018-04-27T03:11:04.791Z,4.90
2018-04-27T03:12:04.782Z,4.90
2018-04-27T03:13:04.729Z,4.90
2018-04-27T03:14:05.283Z,4.90
2018-04-27T03:15:04.848Z,4.90
2018-04-27T03:16:05.420Z,4.90
2018-04-27T03:17:05.118Z,4.90
2018-04-27T03:18:05.628Z,5.00
2018-04-27T03:19:04.658Z,4.90
2018-04-27T03:20:05.358Z,4.90
2018-04-27T03:21:04.978Z,4.90
2018-04-27T03:22:05.565Z,4.90
2018-04-27T03:23:05.098Z,4.90
2018-04-27T03:24:05.127Z,4.90
2018-04-27T03:25:06.215Z,4.90
2018-04-27T03:26:05.311Z,4.80
2018-04-27T03:27:05.636Z,4.80
2018-04-27T03:28:05.470Z,4.80
2018-04-27T03:29:05.105Z,4.80
2018-04-27T03:30:04.728Z,4.80
2018-04-27T03:31:05.319Z,4.80
2018-04-27T03:32:04.910Z,4.80
2018-04-27T03:33:05.611Z,4.80
2018-04-27T03:34:04.854Z,4.80
2018-04-27T03:35:05.121Z,4.80
2018-04-27T03:36:05.561Z,4.70
2018-04-27T03:37:05.504Z,4.80
2018-04-27T03:38:05.473Z,4.80
2018-04-27T03:39:05.400Z,4.80
2018-04-27T03:40:05.420Z,4.80
2018-04-27T03:41:05.136Z,4.80
2018-04-27T03:42:05.094Z,4.80
2018-04-27T03:43:04.936Z,4.80
2018-04-27T03:44:05.560Z,4.80
2018-04-27T03:45:05.873Z,4.80
2018-04-27T03:46:05.302Z,4.70
2018-04-27T03:47:05.345Z,4.70
2018-04-27T03:48:05.458Z,4.70
2018-04-27T03:49:04.978Z,4.70
2018-04-27T03:50:05.154Z,4.70
2018-04-27T03:51:05.131Z,4.70
2018-04-27T03:52:05.123Z,4.70
2018-04-27T03:53:04.935Z,4.70
2018-04-27T03:54:05.601Z,4.70
2018-04-27T03:55:05.403Z,4.70
2018-04-27T03:56:05.085Z,4.70
2018-04-27T03:57:05.470Z,4.70
2018-04-27T03:58:04.663Z,4.70
2018-04-27T03:59:05.139Z,4.70
2018-04-27T04:00:04.640Z,4.70
2018-04-27T04:01:05.011Z,4.70
2018-04-27T04:02:05.592Z,4.70
2018-04-27T04:03:05.584Z,4.70
2018-04-27T04:04:05.403Z,4.70
2018-04-27T04:05:05.500Z,4.70
2018-04-27T04:06:05.136Z,4.70
2018-04-27T04:07:04.957Z,4.70
2018-04-27T04:08:05.303Z,4.70
2018-04-27T04:09:05.005Z,4.70
2018-04-27T04:10:05.410Z,4.70
2018-04-27T04:11:05.585Z,4.70
2018-04-27T04:12:05.584Z,4.70
2018-04-27T04:13:05.337Z,4.70
2018-04-27T04:14:05.197Z,4.70
2018-04-27T04:15:05.172Z,4.70
2018-04-27T04:16:04.976Z,4.60
2018-04-27T04:17:05.435Z,4.60
2018-04-27T04:18:05.690Z,4.70
2018-04-27T04:19:04.925Z,4.60
2018-04-27T04:20:04.865Z,4.60
2018-04-27T04:21:04.809Z,4.60
2018-04-27T04:22:05.483Z,4.60
2018-04-27T04:23:05.099Z,4.60
2018-04-27T04:24:05.441Z,4.60
2018-04-27T04:25:05.682Z,4.60
2018-04-27T04:26:05.699Z,4.60
2018-04-27T04:27:05.427Z,4.60
2018-04-27T04:28:05.043Z,4.60
2018-04-27T04:29:04.772Z,4.60
2018-04-27T04:30:04.716Z,4.60
2018-04-27T04:31:04.982Z,4.60
2018-04-27T04:32:04.726Z,4.60
2018-04-27T04:33:05.922Z,4.60
2018-04-27T04:34:04.810Z,4.60
2018-04-27T04:35:04.985Z,4.60
2018-04-27T04:36:05.092Z,4.60
2018-04-27T04:37:04.754Z,4.70
2018-04-27T04:38:04.914Z,4.70
2018-04-27T04:39:05.057Z,4.70
2018-04-27T04:40:05.589Z,4.70
2018-04-27T04:41:05.729Z,4.70
2018-04-27T04:42:04.864Z,4.70
2018-04-27T04:43:04.871Z,4.70
2018-04-27T04:44:04.826Z,4.70
2018-04-27T04:45:05.256Z,4.80
2018-04-27T04:46:05.346Z,4.80
2018-04-27T04:47:05.480Z,4.80
2018-04-27T04:48:04.746Z,4.90
2018-04-27T04:49:05.198Z,4.90
2018-04-27T04:50:04.999Z,5.00
2018-04-27T04:51:04.864Z,5.00
2018-04-27T04:52:05.703Z,5.00
2018-04-27T04:53:04.894Z,5.10
2018-04-27T04:54:05.089Z,5.10
2018-04-27T04:55:10.384Z,5.20
2018-04-27T04:56:05.333Z,5.20
2018-04-27T04:57:05.370Z,5.30
2018-04-27T04:58:05.181Z,5.30
2018-04-27T04:59:05.513Z,5.30
2018-04-27T05:00:05.789Z,5.40
2018-04-27T05:01:05.096Z,5.50
2018-04-27T05:02:04.915Z,5.50
2018-04-27T05:03:05.549Z,5.60
2018-04-27T05:04:04.710Z,5.60
2018-04-27T05:05:05.394Z,5.70
2018-04-27T05:06:05.147Z,5.70
2018-04-27T05:07:05.090Z,5.80
2018-04-27T05:08:05.294Z,5.90
2018-04-27T05:09:05.318Z,5.90
2018-04-27T05:10:05.497Z,6.00
2018-04-27T05:11:05.174Z,6.10
2018-04-27T05:12:04.803Z,6.10
2018-04-27T05:13:05.455Z,6.20
2018-04-27T05:14:04.791Z,6.30
2018-04-27T05:15:05.090Z,6.30
2018-04-27T05:16:04.868Z,6.40
2018-04-27T05:17:04.946Z,6.50
2018-04-27T05:18:04.963Z,6.60
2018-04-27T05:19:05.801Z,6.70
2018-04-27T05:20:05.149Z,6.80
2018-04-27T05:21:04.951Z,7.00
2018-04-27T05:22:04.765Z,7.10
2018-04-27T05:23:05.467Z,7.30
2018-04-27T05:24:05.249Z,7.40
2018-04-27T05:25:05.333Z,7.60
2018-04-27T05:26:05.205Z,7.70
2018-04-27T05:27:04.920Z,7.80
2018-04-27T05:28:05.042Z,8.00
2018-04-27T05:29:05.070Z,8.10
2018-04-27T05:30:04.864Z,8.30
2018-04-27T05:31:04.895Z,8.40
2018-04-27T05:32:05.036Z,8.50
2018-04-27T05:33:04.900Z,8.70
2018-04-27T05:34:04.814Z,8.80
2018-04-27T05:35:05.566Z,8.90
2018-04-27T05:36:05.529Z,9.10
2018-04-27T05:37:04.938Z,9.20
2018-04-27T05:38:04.758Z,9.30
2018-04-27T05:39:05.423Z,9.40
2018-04-27T05:40:05.493Z,9.60
2018-04-27T05:41:05.614Z,9.70
2018-04-27T05:42:05.092Z,9.70
2018-04-27T05:43:05.125Z,9.80
2018-04-27T05:44:05.250Z,9.90
2018-04-27T05:45:05.516Z,10.00
2018-04-27T05:46:05.348Z,10.00
2018-04-27T05:47:05.039Z,10.10
2018-04-27T05:48:05.464Z,10.10
2018-04-27T05:49:05.391Z,10.10
2018-04-27T05:50:05.387Z,10.20
2018-04-27T05:51:05.536Z,10.20
2018-04-27T05:52:05.256Z,10.30
2018-04-27T05:53:05.488Z,10.30
2018-04-27T05:54:05.083Z,10.40
2018-04-27T05:55:04.955Z,10.50
2018-04-27T05:56:05.159Z,10.50
2018-04-27T05:57:04.945Z,10.60
2018-04-27T05:58:05.264Z,10.70
2018-04-27T05:59:05.751Z,10.80
2018-04-27T06:00:05.542Z,10.80
2018-04-27T06:01:05.601Z,10.90
2018-04-27T06:02:04.981Z,11.00
2018-04-27T06:03:05.065Z,11.00
2018-04-27T06:04:05.003Z,11.10
2018-04-27T06:05:05.373Z,11.20
2018-04-27T06:06:05.168Z,11.20
2018-04-27T06:07:05.114Z,11.30
2018-04-27T06:08:04.956Z,11.50
2018-04-27T06:09:06.370Z,11.60
2018-04-27T06:10:05.615Z,11.70
2018-04-27T06:11:05.292Z,11.70
2018-04-27T06:12:05.211Z,11.80
2018-04-27T06:13:05.120Z,11.80
2018-04-27T06:14:05.629Z,11.80
2018-04-27T06:15:04.839Z,11.80
2018-04-27T06:16:06.212Z,11.80
2018-04-27T06:17:04.925Z,11.80
2018-04-27T06:18:04.873Z,11.80
2018-04-27T06:19:04.779Z,11.70
2018-04-27T06:20:04.923Z,11.70
2018-04-27T06:21:05.037Z,11.70
2018-04-27T06:22:04.909Z,11.60
2018-04-27T06:23:05.064Z,11.60
2018-04-27T06:24:05.225Z,11.50
2018-04-27T06:25:05.532Z,11.50
2018-04-27T06:26:05.928Z,11.40
2018-04-27T06:27:04.942Z,11.40
2018-04-27T06:28:04.905Z,11.30
2018-04-27T06:29:04.825Z,11.30
2018-04-27T06:30:05.549Z,11.20
2018-04-27T06:31:05.249Z,11.20
2018-04-27T06:32:10.407Z,11.20
2018-04-27T06:33:05.684Z,11.10
2018-04-27T06:34:05.656Z,11.10
2018-04-27T06:35:05.324Z,11.10
2018-04-27T06:36:04.925Z,11.10
2018-04-27T06:37:04.848Z,11.00
2018-04-27T06:38:05.272Z,11.00
2018-04-27T06:39:04.772Z,11.00
2018-04-27T06:40:05.588Z,11.00
2018-04-27T06:41:05.364Z,11.00
2018-04-27T06:42:05.785Z,10.90
2018-04-27T06:43:05.819Z,10.90
2018-04-27T06:44:04.871Z,10.90
2018-04-27T06:45:05.127Z,10.90
2018-04-27T06:46:05.536Z,10.90
2018-04-27T06:47:05.629Z,10.90
2018-04-27T06:48:05.030Z,10.80
2018-04-27T06:49:04.945Z,10.80
2018-04-27T06:50:04.715Z,10.80
2018-04-27T06:51:04.726Z,10.80
2018-04-27T06:52:05.733Z,10.80
2018-04-27T06:53:05.159Z,10.80
2018-04-27T06:54:05.244Z,10.70
2018-04-27T06:55:05.698Z,10.70
2018-04-27T06:56:05.407Z,10.70
2018-04-27T06:57:05.327Z,10.70
2018-04-27T06:58:05.389Z,10.70
2018-04-27T06:59:04.760Z,10.60
2018-04-27T07:00:04.831Z,10.60
2018-04-27T07:01:04.830Z,10.60
2018-04-27T07:02:04.765Z,10.60
2018-04-27T07:03:04.955Z,10.60
2018-04-27T07:04:04.970Z,10.60
2018-04-27T07:05:04.821Z,10.60
2018-04-27T07:06:05.619Z,10.60
2018-04-27T07:07:05.618Z,10.60
2018-04-27T07:08:05.513Z,10.60
2018-04-27T07:09:04.776Z,10.60
2018-04-27T07:10:05.605Z,10.70
2018-04-27T07:11:05.571Z,10.70
2018-04-27T07:12:04.740Z,10.70
2018-04-27T07:13:04.870Z,10.70
2018-04-27T07:14:05.344Z,10.80
2018-04-27T07:15:05.313Z,10.80
2018-04-27T07:16:04.924Z,10.80
2018-04-27T07:17:05.063Z,10.90
2018-04-27T07:18:05.410Z,10.90
2018-04-27T07:19:05.233Z,10.90
2018-04-27T07:20:10.197Z,11.00
2018-04-27T07:21:05.211Z,11.00
2018-04-27T07:22:05.019Z,11.10
2018-04-27T07:23:04.902Z,11.10
2018-04-27T07:24:05.634Z,11.20
2018-04-27T07:25:05.766Z,11.30
2018-04-27T07:26:05.362Z,11.30
2018-04-27T07:27:04.733Z,11.40
2018-04-27T07:28:05.417Z,11.50
2018-04-27T07:29:05.129Z,11.60
2018-04-27T07:30:04.980Z,11.70
2018-04-27T07:31:05.674Z,11.80
2018-04-27T07:32:04.990Z,11.80
2018-04-27T07:33:05.512Z,11.90
2018-04-27T07:34:05.017Z,12.00
2018-04-27T07:35:05.526Z,12.00
2018-04-27T07:36:05.744Z,12.10
2018-04-27T07:37:05.683Z,12.20
2018-04-27T07:38:05.543Z,12.30
2018-04-27T07:39:05.276Z,12.30
2018-04-27T07:40:04.778Z,12.40
2018-04-27T07:41:04.806Z,12.40
2018-04-27T07:42:05.565Z,12.50
2018-04-27T07:43:05.536Z,12.50
2018-04-27T07:44:05.382Z,12.50
2018-04-27T07:45:05.344Z,12.60
2018-04-27T07:46:04.979Z,12.70
2018-04-27T07:47:05.549Z,12.70
2018-04-27T07:48:05.394Z,12.70
2018-04-27T07:49:05.539Z,12.80
2018-04-27T07:50:05.449Z,12.80
2018-04-27T07:51:05.073Z,12.90
2018-04-27T07:52:04.866Z,12.90
2018-04-27T07:53:04.624Z,13.00
2018-04-27T07:54:05.178Z,13.00
2018-04-27T07:55:05.202Z,13.10
2018-04-27T07:56:04.841Z,13.10
2018-04-27T07:57:05.474Z,13.20
2018-04-27T07:58:04.950Z,13.20
2018-04-27T07:59:05.386Z,13.20
2018-04-27T08:00:05.119Z,13.20
2018-04-27T08:01:05.884Z,13.30
2018-04-27T08:02:05.546Z,13.30
2018-04-27T08:03:05.263Z,13.30
2018-04-27T08:04:04.734Z,13.40
2018-04-27T08:05:05.033Z,13.40
2018-04-27T08:06:04.633Z,13.40
2018-04-27T08:07:05.379Z,13.40
2018-04-27T08:08:05.220Z,13.40
2018-04-27T08:09:04.703Z,13.40
2018-04-27T08:10:05.228Z,13.40
2018-04-27T08:11:05.030Z,13.40
2018-04-27T08:12:05.674Z,13.50
2018-04-27T08:13:05.257Z,13.50
2018-04-27T08:14:05.074Z,13.60
2018-04-27T08:15:04.824Z,13.60
2018-04-27T08:16:05.454Z,13.70
2018-04-27T08:17:06.686Z,13.70
2018-04-27T08:18:05.437Z,13.80
2018-04-27T08:19:05.383Z,13.90
2018-04-27T08:20:05.239Z,13.90
2018-04-27T08:21:05.534Z,14.00
2018-04-27T08:22:05.791Z,14.10
2018-04-27T08:23:04.853Z,14.10
2018-04-27T08:24:05.431Z,14.20
2018-04-27T08:25:04.979Z,14.20
2018-04-27T08:26:05.543Z,14.30
2018-04-27T08:27:05.167Z,14.30
2018-04-27T08:28:04.723Z,14.40
2018-04-27T08:29:05.067Z,14.50
2018-04-27T08:30:05.495Z,14.50
2018-04-27T08:31:04.934Z,14.60
2018-04-27T08:32:05.313Z,14.70
2018-04-27T08:33:05.654Z,14.70
2018-04-27T08:34:05.281Z,14.80
2018-04-27T08:35:05.449Z,14.80
2018-04-27T08:36:05.040Z,14.90
2018-04-27T08:37:05.220Z,15.00
2018-04-27T08:38:05.182Z,15.10
2018-04-27T08:39:04.722Z,15.20
2018-04-27T08:40:04.782Z,15.20
2018-04-27T08:41:05.051Z,15.30
2018-04-27T08:42:05.237Z,15.30
2018-04-27T08:43:05.599Z,15.30
2018-04-27T08:44:04.695Z,15.30
2018-04-27T08:45:05.530Z,15.40
2018-04-27T08:46:05.599Z,15.40
2018-04-27T08:47:05.080Z,15.40
2018-04-27T08:48:05.139Z,15.40
2018-04-27T08:49:05.245Z,15.40
2018-04-27T08:50:05.104Z,15.40
2018-04-27T08:51:04.837Z,15.50
2018-04-27T08:52:04.862Z,15.50
2018-04-27T08:53:05.637Z,15.50
2018-04-27T08:54:05.287Z,15.50
2018-04-27T08:55:05.163Z,15.50
2018-04-27T08:56:04.931Z,15.50
2018-04-27T08:57:04.735Z,15.40
2018-04-27T08:58:06.478Z,15.40
2018-04-27T08:59:05.001Z,15.40
2018-04-27T09:00:04.995Z,15.40
2018-04-27T09:01:05.255Z,15.50
2018-04-27T09:02:05.487Z,15.50
2018-04-27T09:03:05.117Z,15.60
2018-04-27T09:04:04.918Z,15.60
2018-04-27T09:05:04.845Z,15.60
2018-04-27T09:06:05.458Z,15.70
2018-04-27T09:07:05.160Z,15.70
2018-04-27T09:08:05.213Z,15.70
2018-04-27T09:09:05.246Z,15.80
2018-04-27T09:10:05.127Z,15.80
2018-04-27T09:11:04.921Z,15.80
2018-04-27T09:12:04.789Z,15.80
2018-04-27T09:13:05.639Z,15.80
2018-04-27T09:14:05.575Z,15.90
2018-04-27T09:15:04.891Z,15.90
2018-04-27T09:16:05.362Z,15.90
2018-04-27T09:17:04.989Z,15.90
2018-04-27T09:18:04.677Z,15.90
2018-04-27T09:19:05.604Z,15.90
2018-04-27T09:20:05.056Z,15.90
2018-04-27T09:21:05.433Z,15.90
2018-04-27T09:22:04.711Z,15.90
2018-04-27T09:23:05.032Z,16.00
2018-04-27T09:24:05.618Z,16.00
2018-04-27T09:25:05.283Z,16.00
2018-04-27T09:26:05.109Z,16.00
2018-04-27T09:27:05.032Z,16.00
2018-04-27T09:28:05.046Z,16.00
2018-04-27T09:29:05.427Z,16.00
2018-04-27T09:30:05.250Z,16.00
2018-04-27T09:31:10.418Z,16.00
2018-04-27T09:32:05.254Z,16.00
2018-04-27T09:33:05.473Z,16.00
2018-04-27T09:34:05.174Z,16.00
2018-04-27T09:35:05.255Z,16.10
2018-04-27T09:36:05.322Z,16.10
2018-04-27T09:37:05.283Z,16.10
2018-04-27T09:38:05.603Z,16.10
2018-04-27T09:39:04.986Z,16.10
2018-04-27T09:40:04.672Z,16.10
2018-04-27T09:41:05.539Z,16.10
2018-04-27T09:42:04.995Z,16.20
2018-04-27T09:43:05.302Z,16.20
2018-04-27T09:44:05.299Z,16.20
2018-04-27T09:45:04.820Z,16.20
2018-04-27T09:46:06.469Z,16.20
2018-04-27T09:47:05.688Z,16.30
2018-04-27T09:48:04.844Z,16.30
2018-04-27T09:49:05.721Z,16.30
2018-04-27T09:50:05.292Z,16.30
2018-04-27T09:51:05.526Z,16.30
2018-04-27T09:52:05.287Z,16.30
2018-04-27T09:53:04.822Z,16.30
2018-04-27T09:54:05.397Z,16.30
2018-04-27T09:55:05.433Z,16.30
2018-04-27T09:56:05.084Z,16.30
2018-04-27T09:57:05.027Z,16.30
2018-04-27T09:58:04.798Z,16.30
2018-04-27T09:59:05.481Z,16.40
2018-04-27T10:00:05.230Z,16.30
2018-04-27T10:01:04.977Z,16.30
2018-04-27T10:02:04.928Z,16.30
2018-04-27T10:03:05.089Z,16.30
2018-04-27T10:04:04.968Z,16.40
2018-04-27T10:05:05.611Z,16.40
2018-04-27T10:06:05.644Z,16.40
2018-04-27T10:07:05.533Z,16.40
2018-04-27T10:08:05.375Z,16.40
2018-04-27T10:09:05.276Z,16.50
2018-04-27T10:10:05.179Z,16.50
2018-04-27T10:11:05.141Z,16.50
2018-04-27T10:12:05.402Z,16.60
2018-04-27T10:13:05.182Z,16.60
2018-04-27T10:14:04.967Z,16.60
2018-04-27T10:15:05.759Z,16.60
2018-04-27T10:16:04.967Z,16.60
2018-04-27T10:17:05.241Z,16.60
2018-04-27T10:18:05.066Z,16.60
2018-04-27T10:19:05.088Z,16.60
2018-04-27T10:20:05.560Z,16.60
2018-04-27T10:21:05.393Z,16.60
2018-04-27T10:22:05.347Z,16.60
2018-04-27T10:23:05.132Z,16.60
2018-04-27T10:24:05.134Z,16.60
2018-04-27T10:25:05.544Z,16.60
2018-04-27T10:26:05.481Z,16.70
2018-04-27T10:27:05.661Z,16.70
2018-04-27T10:28:05.444Z,16.70
2018-04-27T10:29:05.105Z,16.70
2018-04-27T10:30:05.088Z,16.80
2018-04-27T10:31:05.069Z,16.70
2018-04-27T10:32:05.248Z,16.80
2018-04-27T10:33:05.151Z,16.80
2018-04-27T10:34:05.405Z,16.80
2018-04-27T10:35:05.034Z,16.80
2018-04-27T10:36:05.216Z,16.80
2018-04-27T10:37:05.011Z,16.90
2018-04-27T10:38:05.132Z,16.90
2018-04-27T10:39:05.039Z,16.90
2018-04-27T10:40:05.076Z,16.90
2018-04-27T10:41:04.764Z,17.00
2018-04-27T10:42:05.629Z,17.00
2018-04-27T10:43:04.888Z,17.00
2018-04-27T10:44:05.344Z,17.00
2018-04-27T10:45:05.406Z,17.00
2018-04-27T10:46:05.164Z,17.10
2018-04-27T10:47:05.323Z,17.10
2018-04-27T10:48:04.907Z,17.10
2018-04-27T10:49:05.573Z,17.10
2018-04-27T10:50:05.373Z,17.10
2018-04-27T10:51:05.145Z,17.10
2018-04-27T10:52:05.371Z,17.10
2018-04-27T10:53:05.253Z,17.10
2018-04-27T10:54:05.307Z,17.10
2018-04-27T10:55:05.059Z,17.10
2018-04-27T10:56:05.575Z,17.20
2018-04-27T10:57:05.207Z,17.10
2018-04-27T10:58:05.084Z,17.10
2018-04-27T10:59:05.310Z,17.10
2018-04-27T11:00:05.240Z,17.10
2018-04-27T11:01:05.432Z,17.10
2018-04-27T11:02:05.507Z,17.10
2018-04-27T11:03:05.157Z,17.10
2018-04-27T11:04:04.986Z,17.10
2018-04-27T11:05:04.735Z,17.10
2018-04-27T11:06:05.021Z,17.10
2018-04-27T11:07:05.575Z,17.10
2018-04-27T11:08:05.224Z,17.10
2018-04-27T11:09:05.172Z,17.10
2018-04-27T11:10:04.665Z,17.10
2018-04-27T11:11:05.207Z,17.20
2018-04-27T11:12:04.712Z,17.20
2018-04-27T11:13:04.870Z,17.20
2018-04-27T11:14:05.405Z,17.20
2018-04-27T11:15:05.113Z,17.20
2018-04-27T11:16:04.882Z,17.20
2018-04-27T11:17:04.889Z,17.20
2018-04-27T11:18:05.045Z,17.20
2018-04-27T11:19:04.890Z,17.30
2018-04-27T11:20:04.838Z,17.30
2018-04-27T11:21:04.728Z,17.20
2018-04-27T11:22:05.406Z,17.20
2018-04-27T11:23:04.847Z,17.20
2018-04-27T11:24:04.876Z,17.20
2018-04-27T11:25:05.654Z,17.30
2018-04-27T11:26:05.349Z,17.20
2018-04-27T11:27:05.454Z,17.30
2018-04-27T11:28:05.350Z,17.30
2018-04-27T11:29:06.274Z,17.20
2018-04-27T11:30:04.869Z,17.20
2018-04-27T11:31:04.696Z,17.20
2018-04-27T11:32:04.712Z,17.20
2018-04-27T11:33:05.363Z,17.20
2018-04-27T11:34:04.814Z,17.20
2018-04-27T11:35:05.415Z,17.20
2018-04-27T11:36:05.247Z,17.20
2018-04-27T11:37:05.233Z,17.20
2018-04-27T11:38:05.052Z,17.20
2018-04-27T11:39:04.715Z,17.20
2018-04-27T11:40:05.585Z,17.20
2018-04-27T11:41:05.533Z,17.20
2018-04-27T11:42:04.798Z,17.20
2018-04-27T11:43:04.875Z,17.20
2018-04-27T11:44:04.682Z,17.30
2018-04-27T11:45:05.757Z,17.30
2018-04-27T11:46:04.957Z,17.30
2018-04-27T11:47:05.107Z,17.30
2018-04-27T11:48:05.296Z,17.40
2018-04-27T11:49:05.230Z,17.40
2018-04-27T11:50:05.170Z,17.40
2018-04-27T11:51:05.021Z,17.40
2018-04-27T11:52:04.870Z,17.40
2018-04-27T11:53:04.906Z,17.50
2018-04-27T11:54:05.375Z,17.50
2018-04-27T11:55:05.297Z,17.50
2018-04-27T11:56:05.744Z,17.50
2018-04-27T11:57:05.513Z,17.60
2018-04-27T11:58:05.337Z,17.60
2018-04-27T11:59:04.847Z,17.60
2018-04-27T12:00:05.573Z,17.60
2018-04-27T12:01:04.782Z,17.60
2018-04-27T12:02:04.878Z,17.60
2018-04-27T12:03:04.814Z,17.70
2018-04-27T12:04:04.922Z,17.70
2018-04-27T12:05:05.379Z,17.70
2018-04-27T12:06:05.297Z,17.70
2018-04-27T12:07:05.237Z,17.60
2018-04-27T12:08:05.336Z,17.60
2018-04-27T12:09:05.095Z,17.60
2018-04-27T12:10:04.894Z,17.60
2018-04-27T12:11:04.673Z,17.60
2018-04-27T12:12:05.035Z,17.50
2018-04-27T12:13:05.156Z,17.60
2018-04-27T12:14:05.349Z,17.60
2018-04-27T12:15:05.467Z,17.60
2018-04-27T12:16:05.497Z,17.60
2018-04-27T12:17:05.539Z,17.60
2018-04-27T12:18:05.124Z,17.60
2018-04-27T12:19:05.033Z,17.70
2018-04-27T12:20:04.900Z,17.70
2018-04-27T12:21:04.692Z,17.70
2018-04-27T12:22:05.472Z,17.80
2018-04-27T12:23:05.979Z,17.80
2018-04-27T12:24:05.233Z,17.80
2018-04-27T12:25:05.289Z,17.80
2018-04-27T12:26:05.219Z,17.80
2018-04-27T12:27:05.504Z,17.80
2018-04-27T12:28:05.078Z,17.80
2018-04-27T12:29:04.974Z,17.80
2018-04-27T12:30:05.670Z,17.80
2018-04-27T12:31:04.940Z,17.80
2018-04-27T12:32:04.765Z,17.80
2018-04-27T12:33:05.625Z,17.80
2018-04-27T12:34:05.346Z,17.80
2018-04-27T12:35:04.768Z,17.80
2018-04-27T12:36:05.545Z,17.80
2018-04-27T12:37:05.867Z,17.80
2018-04-27T12:38:05.509Z,17.70
2018-04-27T12:39:04.869Z,17.70
2018-04-27T12:40:05.501Z,17.70
2018-04-27T12:41:05.571Z,17.70
2018-04-27T12:42:05.322Z,17.70
2018-04-27T12:43:05.587Z,17.70
2018-04-27T12:44:05.511Z,17.70
2018-04-27T12:45:05.384Z,17.70
2018-04-27T12:46:05.265Z,17.70
2018-04-27T12:47:04.825Z,17.70
2018-04-27T12:48:05.311Z,17.70
2018-04-27T12:49:04.798Z,17.70
2018-04-27T12:50:04.880Z,17.70
2018-04-27T12:51:05.160Z,17.70
2018-04-27T12:52:05.017Z,17.70
2018-04-27T12:53:05.544Z,17.70
2018-04-27T12:54:05.219Z,17.80
2018-04-27T12:55:05.303Z,17.80
2018-04-27T12:56:05.559Z,17.80
2018-04-27T12:57:05.443Z,17.80
2018-04-27T12:58:05.265Z,17.80
2018-04-27T12:59:05.197Z,17.90
2018-04-27T13:00:05.836Z,17.90
2018-04-27T13:01:05.168Z,17.90
2018-04-27T13:02:04.769Z,17.90
2018-04-27T13:03:05.808Z,17.90